createdAt,value
2018-09-13T00:00:27.805Z,15.90
2018-09-13T00:02:55.241Z,15.90
2018-09-13T00:05:25.359Z,16.00
2018-09-13T00:07:52.819Z,16.00
2018-09-13T00:10:20.214Z,16.00
2018-09-13T00:12:47.643Z,15.90
2018-09-13T00:15:15.068Z,15.90
2018-09-13T00:17:45.955Z,15.90
2018-09-13T00:20:13.406Z,15.90
2018-09-13T00:22:40.851Z,15.90
2018-09-13T00:25:08.321Z,15.90
2018-09-13T00:27:36.000Z,16.00
2018-09-13T00:30:03.619Z,16.00
2018-09-13T00:32:31.072Z,16.00
2018-09-13T00:34:58.560Z,15.90
2018-09-13T00:37:26.018Z,15.90
2018-09-13T00:39:53.437Z,15.90
2018-09-13T00:42:20.875Z,15.70
2018-09-13T00:44:48.340Z,15.70
2018-09-13T00:47:15.779Z,15.70
2018-09-13T00:49:43.415Z,15.70
2018-09-13T00:52:10.903Z,15.80
2018-09-13T00:54:39.698Z,15.90
2018-09-13T00:57:07.369Z,15.80
2018-09-13T00:59:34.814Z,15.70
2018-09-13T01:02:02.246Z,15.60
2018-09-13T01:04:29.670Z,15.60
2018-09-13T01:06:57.135Z,15.50
2018-09-13T01:09:25.563Z,15.50
2018-09-13T01:11:52.942Z,15.30
2018-09-13T01:14:20.320Z,15.40
2018-09-13T01:16:47.719Z,15.40
2018-09-13T01:19:15.724Z,15.20
2018-09-13T01:21:43.220Z,15.20
2018-09-13T01:24:10.608Z,15.20
2018-09-13T01:26:37.935Z,15.10
2018-09-13T01:29:06.132Z,15.10
2018-09-13T01:31:34.996Z,15.10
2018-09-13T01:34:03.341Z,15.20
2018-09-13T01:36:31.722Z,15.10
2018-09-13T01:38:59.312Z,15.10
2018-09-13T01:41:26.667Z,15.10
2018-09-13T01:43:54.095Z,15.00
2018-09-13T01:46:21.483Z,14.90
2018-09-13T01:48:48.831Z,14.90
2018-09-13T01:51:16.167Z,14.90
2018-09-13T01:53:43.490Z,14.90
2018-09-13T01:56:10.839Z,14.90
2018-09-13T01:58:38.183Z,14.70
2018-09-13T02:01:05.502Z,14.60
2018-09-13T02:03:32.915Z,14.70
2018-09-13T02:06:00.285Z,14.70
2018-09-13T02:08:28.400Z,14.60
2018-09-13T02:10:56.585Z,14.60
2018-09-13T02:13:24.350Z,14.60
2018-09-13T02:15:52.091Z,14.60
2018-09-13T02:18:19.821Z,14.60
2018-09-13T02:20:47.203Z,14.60
2018-09-13T02:23:14.530Z,14.60
2018-09-13T02:25:41.978Z,14.60
2018-09-13T02:28:09.295Z,14.70
2018-09-13T02:30:36.648Z,14.70
2018-09-13T02:33:04.006Z,14.60
2018-09-13T02:35:32.121Z,14.70
2018-09-13T02:37:59.496Z,14.50
2018-09-13T02:40:26.835Z,14.50
2018-09-13T02:42:54.335Z,14.60
2018-09-13T02:45:21.835Z,14.50
2018-09-13T02:47:49.200Z,14.50
2018-09-13T02:50:16.543Z,14.60
2018-09-13T02:52:44.028Z,14.70
2018-09-13T02:55:11.386Z,14.70
2018-09-13T02:57:38.776Z,14.70
2018-09-13T03:00:06.575Z,14.80
2018-09-13T03:02:34.003Z,14.80
2018-09-13T03:05:03.294Z,14.80
2018-09-13T03:07:31.592Z,14.90
2018-09-13T03:10:00.003Z,14.90
2018-09-13T03:12:28.097Z,14.90
2018-09-13T03:14:55.524Z,15.00
2018-09-13T03:17:22.927Z,15.00
2018-09-13T03:19:50.244Z,15.00
2018-09-13T03:22:17.584Z,15.00
2018-09-13T03:24:44.938Z,15.00
2018-09-13T03:27:12.246Z,15.00
2018-09-13T03:29:39.646Z,15.00
2018-09-13T03:32:06.931Z,15.00
2018-09-13T03:34:34.749Z,15.00
2018-09-13T03:37:02.145Z,14.90
2018-09-13T03:39:29.536Z,14.90
2018-09-13T03:41:56.880Z,14.90
2018-09-13T03:44:24.195Z,14.80
2018-09-13T03:46:51.547Z,14.90
2018-09-13T03:49:21.185Z,14.90
2018-09-13T03:51:48.518Z,14.90
2018-09-13T03:54:15.822Z,14.90
2018-09-13T03:56:43.225Z,14.90
2018-09-13T03:59:10.571Z,14.90
2018-09-13T04:01:37.916Z,14.90
2018-09-13T04:04:08.192Z,14.90
2018-09-13T04:06:35.513Z,14.80
2018-09-13T04:09:03.874Z,14.50
2018-09-13T04:11:31.183Z,14.40
2018-09-13T04:13:58.589Z,14.50
2018-09-13T04:16:25.909Z,14.50
2018-09-13T04:18:53.281Z,14.60
2018-09-13T04:21:21.632Z,14.70
2018-09-13T04:23:49.107Z,14.60
2018-09-13T04:26:16.411Z,14.60
2018-09-13T04:28:43.760Z,14.60
2018-09-13T04:31:11.202Z,14.60
2018-09-13T04:33:38.555Z,14.60
2018-09-13T04:36:06.016Z,14.70
2018-09-13T04:38:33.255Z,14.80
2018-09-13T04:41:00.615Z,14.80
2018-09-13T04:43:28.123Z,14.90
2018-09-13T04:45:55.628Z,14.80
2018-09-13T04:48:23.049Z,14.80
2018-09-13T04:50:50.358Z,14.80
2018-09-13T04:53:17.714Z,14.80
2018-09-13T04:55:45.407Z,14.70
2018-09-13T04:58:13.035Z,14.80
2018-09-13T05:00:40.615Z,14.80
2018-09-13T05:03:07.943Z,14.80
2018-09-13T05:05:35.364Z,14.80
2018-09-13T05:08:02.776Z,14.80
2018-09-13T05:10:30.067Z,14.70
2018-09-13T05:12:57.535Z,14.60
2018-09-13T05:15:26.371Z,14.70
2018-09-13T05:17:53.711Z,14.60
2018-09-13T05:20:21.067Z,14.70
2018-09-13T05:22:48.592Z,14.70
2018-09-13T05:25:15.903Z,14.70
2018-09-13T05:27:43.336Z,14.70
2018-09-13T05:30:10.670Z,14.50
2018-09-13T05:32:38.028Z,14.40
2018-09-13T05:35:05.515Z,14.50
2018-09-13T05:37:32.831Z,14.50
2018-09-13T05:40:00.151Z,14.60
2018-09-13T05:42:27.472Z,14.60
2018-09-13T05:44:54.824Z,14.60
2018-09-13T05:47:22.163Z,14.50
2018-09-13T05:49:49.523Z,14.40
2018-09-13T05:52:16.879Z,14.40
2018-09-13T05:54:44.325Z,14.40
2018-09-13T05:57:11.639Z,14.50
2018-09-13T05:59:38.947Z,14.40
2018-09-13T06:02:06.351Z,14.30
2018-09-13T06:04:33.926Z,14.30
2018-09-13T06:07:01.230Z,14.40
2018-09-13T06:09:28.584Z,14.50
2018-09-13T06:11:55.914Z,14.50
2018-09-13T06:14:23.206Z,14.50
2018-09-13T06:16:50.551Z,14.60
2018-09-13T06:19:17.855Z,14.60
2018-09-13T06:21:45.351Z,14.70
2018-09-13T06:24:12.785Z,14.70
2018-09-13T06:26:40.175Z,14.80
2018-09-13T06:29:07.544Z,14.70
2018-09-13T06:31:35.092Z,14.80
2018-09-13T06:34:02.971Z,14.80
2018-09-13T06:36:30.518Z,14.70
2018-09-13T06:38:57.875Z,14.70
2018-09-13T06:41:25.404Z,14.70
2018-09-13T06:43:52.931Z,14.70
2018-09-13T06:46:20.367Z,14.60
2018-09-13T06:48:47.744Z,14.60
2018-09-13T06:51:15.183Z,14.70
2018-09-13T06:53:42.695Z,14.60
2018-09-13T06:56:11.696Z,14.60
2018-09-13T06:58:39.083Z,14.60
2018-09-13T07:01:06.631Z,14.50
2018-09-13T07:03:34.008Z,14.40
2018-09-13T07:06:01.445Z,14.40
2018-09-13T07:08:29.439Z,14.40
2018-09-13T07:10:57.806Z,14.20
2018-09-13T07:13:25.395Z,14.40
2018-09-13T07:15:52.792Z,14.50
2018-09-13T07:18:20.283Z,14.50
2018-09-13T07:20:47.770Z,14.70
2018-09-13T07:23:15.185Z,14.80
2018-09-13T07:25:42.773Z,14.80
2018-09-13T07:28:10.518Z,14.60
2018-09-13T07:30:39.468Z,14.60
2018-09-13T07:33:07.570Z,14.70
2018-09-13T07:35:35.935Z,14.80
2018-09-13T07:38:05.796Z,14.90
2018-09-13T07:40:33.595Z,14.90
2018-09-13T07:43:01.244Z,14.80
2018-09-13T07:45:30.536Z,14.80
2018-09-13T07:47:58.089Z,14.80
2018-09-13T07:50:25.473Z,14.80
2018-09-13T07:52:53.161Z,14.60
2018-09-13T07:55:20.527Z,14.60
2018-09-13T07:57:51.103Z,14.70
2018-09-13T08:00:18.605Z,14.90
2018-09-13T08:02:46.033Z,14.90
2018-09-13T08:05:13.527Z,14.90
2018-09-13T08:07:40.868Z,15.00
2018-09-13T08:10:08.753Z,15.00
2018-09-13T08:12:39.785Z,14.90
2018-09-13T08:15:07.247Z,15.00
2018-09-13T08:17:34.664Z,15.00
2018-09-13T08:20:02.215Z,15.10
2018-09-13T08:22:29.675Z,15.10
2018-09-13T08:25:00.299Z,15.00
2018-09-13T08:27:27.764Z,15.00
2018-09-13T08:29:55.234Z,14.90
2018-09-13T08:32:22.709Z,14.90
2018-09-13T08:34:50.226Z,15.00
2018-09-13T08:37:19.473Z,15.00
2018-09-13T08:39:48.846Z,15.10
2018-09-13T08:42:16.255Z,14.90
2018-09-13T08:44:43.718Z,14.70
2018-09-13T08:47:11.157Z,14.80
2018-09-13T08:49:38.694Z,14.70
2018-09-13T08:52:06.073Z,14.70
2018-09-13T08:54:36.555Z,14.80
2018-09-13T08:57:03.833Z,14.70
2018-09-13T08:59:31.055Z,14.90
2018-09-13T09:01:58.354Z,15.00
2018-09-13T09:04:25.623Z,15.20
2018-09-13T09:06:52.849Z,15.30
2018-09-13T09:09:22.547Z,15.20
2018-09-13T09:11:49.798Z,15.30
2018-09-13T09:14:17.026Z,15.40
2018-09-13T09:16:44.272Z,15.50
2018-09-13T09:19:11.512Z,15.50
2018-09-13T09:21:39.110Z,15.60
2018-09-13T09:24:11.313Z,15.70
2018-09-13T09:26:38.586Z,15.70
2018-09-13T09:29:05.836Z,15.80
2018-09-13T09:31:33.035Z,15.80
2018-09-13T09:34:00.415Z,15.80
2018-09-13T09:36:27.643Z,15.90
2018-09-13T09:38:58.821Z,15.90
2018-09-13T09:41:26.152Z,16.00
2018-09-13T09:43:53.494Z,16.00
2018-09-13T09:46:20.764Z,15.70
2018-09-13T09:48:47.979Z,15.80
2018-09-13T09:51:15.183Z,15.90
2018-09-13T09:53:42.392Z,15.50
2018-09-13T09:56:12.593Z,15.60
2018-09-13T09:58:39.781Z,15.60
2018-09-13T10:01:12.838Z,15.70
2018-09-13T10:03:40.063Z,15.70
2018-09-13T10:06:07.718Z,15.70
2018-09-13T10:08:39.594Z,15.90
2018-09-13T10:11:06.891Z,15.90
2018-09-13T10:13:34.168Z,15.90
2018-09-13T10:16:07.062Z,15.90
2018-09-13T10:18:44.225Z,16.00
2018-09-13T10:21:17.117Z,16.10
2018-09-13T10:23:50.186Z,16.20
2018-09-13T10:26:23.096Z,16.30
2018-09-13T10:28:55.992Z,16.10
2018-09-13T10:31:28.981Z,16.20
2018-09-13T10:34:02.000Z,16.40
2018-09-13T10:36:34.938Z,16.40
2018-09-13T10:39:07.884Z,16.60
2018-09-13T10:41:40.739Z,16.90
2018-09-13T10:44:13.817Z,17.00
2018-09-13T10:46:41.121Z,17.20
2018-09-13T10:49:14.030Z,17.30
2018-09-13T10:51:47.010Z,17.30
2018-09-13T10:54:23.998Z,17.30
2018-09-13T10:56:51.257Z,17.40
2018-09-13T10:59:18.519Z,17.40
2018-09-13T11:01:45.845Z,17.40
2018-09-13T11:04:13.173Z,17.30
2018-09-13T11:06:44.552Z,17.30
2018-09-13T11:09:13.803Z,17.30
2018-09-13T11:11:41.828Z,17.20
2018-09-13T11:14:12.902Z,17.30
2018-09-13T11:16:40.128Z,17.30
2018-09-13T11:19:09.000Z,17.40
2018-09-13T11:21:38.726Z,17.50
2018-09-13T11:24:06.082Z,17.40
2018-09-13T11:26:33.395Z,17.40
2018-09-13T11:29:00.669Z,17.40
2018-09-13T11:31:27.924Z,17.40
2018-09-13T11:33:55.226Z,17.10
2018-09-13T11:36:24.517Z,17.10
2018-09-13T11:38:51.741Z,17.10
2018-09-13T11:41:18.994Z,17.10
2018-09-13T11:43:46.227Z,17.20
2018-09-13T11:46:13.487Z,17.30
2018-09-13T11:48:40.728Z,17.20
2018-09-13T11:51:12.867Z,17.30
2018-09-13T11:53:39.924Z,17.40
2018-09-13T11:56:07.217Z,17.50
2018-09-13T11:58:34.534Z,17.50
2018-09-13T12:01:01.798Z,17.50
2018-09-13T12:03:29.081Z,17.60
2018-09-13T12:05:57.879Z,17.70
2018-09-13T12:08:25.151Z,17.90
2018-09-13T12:10:52.394Z,18.20
2018-09-13T12:13:19.664Z,18.40
2018-09-13T12:15:46.891Z,18.60
2018-09-13T12:18:14.171Z,18.60
2018-09-13T12:20:44.520Z,18.70
2018-09-13T12:23:11.754Z,18.90
2018-09-13T12:25:38.994Z,19.00
2018-09-13T12:28:06.507Z,19.20
2018-09-13T12:30:33.719Z,19.20
2018-09-13T12:33:00.947Z,19.20
2018-09-13T12:35:33.151Z,19.00
2018-09-13T12:38:00.371Z,19.10
2018-09-13T12:40:27.579Z,19.30
2018-09-13T12:42:54.861Z,19.50
2018-09-13T12:45:22.156Z,19.50
2018-09-13T12:47:49.374Z,19.50
2018-09-13T12:50:16.900Z,19.40
2018-09-13T12:52:44.126Z,19.30
2018-09-13T12:55:11.332Z,19.50
2018-09-13T12:57:38.601Z,19.50
2018-09-13T13:00:05.890Z,19.40
2018-09-13T13:02:33.131Z,19.50
2018-09-13T13:05:00.346Z,19.80
2018-09-13T13:07:27.591Z,19.90
2018-09-13T13:09:54.814Z,20.10
2018-09-13T13:12:22.025Z,20.60
2018-09-13T13:14:49.246Z,20.90
2018-09-13T13:17:16.469Z,20.60
2018-09-13T13:19:43.704Z,20.70
2018-09-13T13:22:11.000Z,20.70
2018-09-13T13:24:38.238Z,21.00
2018-09-13T13:27:05.627Z,21.30
2018-09-13T13:29:32.851Z,20.80
2018-09-13T13:32:00.071Z,20.60
2018-09-13T13:34:27.307Z,20.40
2018-09-13T13:36:54.559Z,20.50
2018-09-13T13:39:21.827Z,20.50
2018-09-13T13:41:49.069Z,20.40
2018-09-13T13:44:16.316Z,20.50
2018-09-13T13:46:43.594Z,20.40
2018-09-13T13:49:11.063Z,20.20
2018-09-13T13:51:38.581Z,20.10
2018-09-13T13:54:06.088Z,20.00
2018-09-13T13:56:33.578Z,20.00
2018-09-13T13:59:01.141Z,20.00
2018-09-13T14:01:28.626Z,19.90
2018-09-13T14:03:56.126Z,20.00
2018-09-13T14:06:23.551Z,19.90
2018-09-13T14:08:51.064Z,20.00
2018-09-13T14:11:18.515Z,20.00
2018-09-13T14:13:45.922Z,19.80
2018-09-13T14:16:13.372Z,19.90
2018-09-13T14:18:40.815Z,20.00
2018-09-13T14:21:08.411Z,20.10
2018-09-13T14:23:35.877Z,20.10
2018-09-13T14:26:03.327Z,20.20
2018-09-13T14:28:30.759Z,20.40
2018-09-13T14:30:58.479Z,20.60
2018-09-13T14:33:25.909Z,20.40
2018-09-13T14:35:54.334Z,20.10
2018-09-13T14:38:26.984Z,20.10
2018-09-13T14:40:54.502Z,20.20
2018-09-13T14:43:22.727Z,20.30
2018-09-13T14:45:50.222Z,20.20
2018-09-13T14:48:17.576Z,20.20
2018-09-13T14:50:44.974Z,20.30
2018-09-13T14:53:12.407Z,20.10
2018-09-13T14:55:41.882Z,20.30
2018-09-13T14:58:09.338Z,20.50
2018-09-13T15:00:36.831Z,20.40
2018-09-13T15:03:04.346Z,20.30
2018-09-13T15:05:31.855Z,20.30
2018-09-13T15:08:04.420Z,20.30
2018-09-13T15:10:31.851Z,20.30
2018-09-13T15:12:59.385Z,20.20
2018-09-13T15:15:26.781Z,20.00
2018-09-13T15:17:54.200Z,19.90
2018-09-13T15:20:21.655Z,19.80
2018-09-13T15:22:54.084Z,19.90
2018-09-13T15:25:21.527Z,19.90
2018-09-13T15:27:49.006Z,20.00
2018-09-13T15:30:16.455Z,20.00
2018-09-13T15:32:43.893Z,20.10
2018-09-13T15:35:11.356Z,20.20
2018-09-13T15:37:40.115Z,20.10
2018-09-13T15:40:07.663Z,20.10
2018-09-13T15:42:35.075Z,20.10
2018-09-13T15:45:02.477Z,20.10
2018-09-13T15:47:30.067Z,20.10
2018-09-13T15:49:57.541Z,20.10
2018-09-13T15:52:28.664Z,20.10
2018-09-13T15:54:56.078Z,20.00
2018-09-13T15:57:23.535Z,20.00
2018-09-13T15:59:51.106Z,20.00
2018-09-13T16:02:18.540Z,19.80
2018-09-13T16:04:45.973Z,19.80
2018-09-13T16:07:13.384Z,19.80
2018-09-13T16:09:42.442Z,19.80
2018-09-13T16:12:09.868Z,19.80
2018-09-13T16:14:37.315Z,19.80
2018-09-13T16:17:04.831Z,19.90
2018-09-13T16:19:32.268Z,19.90
2018-09-13T16:21:59.811Z,19.70
2018-09-13T16:24:32.191Z,19.80
2018-09-13T16:26:59.801Z,19.80
2018-09-13T16:29:27.271Z,19.80
2018-09-13T16:31:54.735Z,19.90
2018-09-13T16:34:22.211Z,19.90
2018-09-13T16:36:59.458Z,19.90
2018-09-13T16:39:32.567Z,19.90
2018-09-13T16:42:05.704Z,19.80
2018-09-13T16:44:41.031Z,19.70
2018-09-13T16:47:16.139Z,19.70
2018-09-13T16:49:43.580Z,19.60
2018-09-13T16:52:11.197Z,19.60
2018-09-13T16:54:38.646Z,19.40
2018-09-13T16:57:10.785Z,19.40
2018-09-13T16:59:38.282Z,19.40
2018-09-13T17:02:06.985Z,19.30
2018-09-13T17:04:34.498Z,19.20
2018-09-13T17:07:02.054Z,19.20
2018-09-13T17:09:29.446Z,19.20
2018-09-13T17:11:59.395Z,19.20
2018-09-13T17:14:26.816Z,19.10
2018-09-13T17:16:54.273Z,19.10
2018-09-13T17:19:21.691Z,19.10
2018-09-13T17:21:49.164Z,19.10
2018-09-13T17:24:16.643Z,19.10
2018-09-13T17:26:44.176Z,19.10
2018-09-13T17:29:13.977Z,19.10
2018-09-13T17:31:41.423Z,19.00
2018-09-13T17:34:08.877Z,19.00
2018-09-13T17:36:36.356Z,18.90
2018-09-13T17:39:07.726Z,18.90
2018-09-13T17:41:39.289Z,18.80
2018-09-13T17:44:06.760Z,18.60
2018-09-13T17:46:34.154Z,18.50
2018-09-13T17:49:01.641Z,18.50
2018-09-13T17:51:29.063Z,18.40
2018-09-13T17:56:32.686Z,18.20
2018-09-13T17:58:59.987Z,18.00
2018-09-13T18:01:27.502Z,18.00
2018-09-13T18:03:54.967Z,18.00
2018-09-13T18:06:22.791Z,17.90
2018-09-13T18:08:54.900Z,17.90
2018-09-13T18:11:22.294Z,17.80
2018-09-13T18:13:50.046Z,17.70
2018-09-13T18:16:17.599Z,17.70
2018-09-13T18:18:45.031Z,17.60
2018-09-13T18:21:12.428Z,17.50
2018-09-13T18:23:41.828Z,17.50
2018-09-13T18:26:09.211Z,17.50
2018-09-13T18:28:36.694Z,17.40
2018-09-13T18:31:04.324Z,17.40
2018-09-13T18:33:31.883Z,17.30
2018-09-13T18:35:59.395Z,17.20
2018-09-13T18:38:31.708Z,17.10
2018-09-13T18:40:59.376Z,17.00
2018-09-13T18:43:26.845Z,16.90
2018-09-13T18:45:55.342Z,16.80
2018-09-13T18:48:22.751Z,16.70
2018-09-13T18:50:50.211Z,16.70
2018-09-13T18:53:21.355Z,16.60
2018-09-13T18:55:48.849Z,16.60
2018-09-13T18:58:16.315Z,16.50
2018-09-13T19:00:43.770Z,16.50
2018-09-13T19:03:11.186Z,16.50
2018-09-13T19:05:38.646Z,16.40
2018-09-13T19:08:12.266Z,16.50
2018-09-13T19:10:39.728Z,16.40
2018-09-13T19:13:07.183Z,16.30
2018-09-13T19:15:34.721Z,16.20
2018-09-13T19:18:02.116Z,16.20
2018-09-13T19:20:34.248Z,16.20
2018-09-13T19:23:01.743Z,16.10
2018-09-13T19:25:29.170Z,16.10
2018-09-13T19:27:56.600Z,16.00
2018-09-13T19:30:23.990Z,16.00
2018-09-13T19:32:51.438Z,15.90
2018-09-13T19:35:18.943Z,15.90
2018-09-13T19:37:48.863Z,15.80
2018-09-13T19:40:16.285Z,15.80
2018-09-13T19:42:43.919Z,15.80
2018-09-13T19:45:11.372Z,15.80
2018-09-13T19:47:38.858Z,15.80
2018-09-13T19:50:06.341Z,15.80
2018-09-13T19:52:37.624Z,15.80
2018-09-13T19:55:06.226Z,15.80
2018-09-13T19:57:33.687Z,15.70
2018-09-13T20:00:02.136Z,15.70
2018-09-13T20:02:29.650Z,15.70
2018-09-13T20:04:57.392Z,15.60
2018-09-13T20:07:29.196Z,15.50
2018-09-13T20:09:56.617Z,15.50
2018-09-13T20:12:24.204Z,15.50
2018-09-13T20:14:51.679Z,15.50
2018-09-13T20:17:19.258Z,15.50
2018-09-13T20:19:46.703Z,15.50
2018-09-13T20:22:18.232Z,15.40
2018-09-13T20:24:45.727Z,15.40
2018-09-13T20:27:13.202Z,15.30
2018-09-13T20:29:40.718Z,15.30
2018-09-13T20:32:08.154Z,15.20
2018-09-13T20:34:35.543Z,15.20
2018-09-13T20:37:03.014Z,15.10
2018-09-13T20:39:32.758Z,15.10
2018-09-13T20:42:00.268Z,15.00
2018-09-13T20:44:27.684Z,15.00
2018-09-13T20:46:55.124Z,15.00
2018-09-13T20:49:22.539Z,15.00
2018-09-13T20:51:50.029Z,14.90
2018-09-13T20:54:17.466Z,14.90
2018-09-13T20:56:44.918Z,14.80
2018-09-13T20:59:12.381Z,14.80
2018-09-13T21:01:39.787Z,14.80
2018-09-13T21:04:07.299Z,14.80
2018-09-13T21:06:34.741Z,14.80
2018-09-13T21:09:10.614Z,14.70
2018-09-13T21:11:38.067Z,14.80
2018-09-13T21:14:05.631Z,14.70
2018-09-13T21:16:33.108Z,14.70
2018-09-13T21:19:00.618Z,14.60
2018-09-13T21:21:28.131Z,14.60
2018-09-13T21:23:55.750Z,14.50
2018-09-13T21:26:23.171Z,14.50
2018-09-13T21:28:50.602Z,14.40
2018-09-13T21:31:18.018Z,14.40
2018-09-13T21:33:45.391Z,14.40
2018-09-13T21:36:12.862Z,14.30
2018-09-13T21:38:40.283Z,14.30
2018-09-13T21:41:07.690Z,14.30
2018-09-13T21:43:35.160Z,14.30
2018-09-13T21:46:02.684Z,14.20
2018-09-13T21:48:30.088Z,14.20
2018-09-13T21:50:57.599Z,14.20
2018-09-13T21:53:25.011Z,14.20
2018-09-13T21:55:52.439Z,14.20
2018-09-13T21:58:20.011Z,14.10
2018-09-13T22:00:47.474Z,14.10
2018-09-13T22:03:14.903Z,14.00
2018-09-13T22:05:42.313Z,14.00
2018-09-13T22:08:09.702Z,14.00
2018-09-13T22:10:37.115Z,13.90
2018-09-13T22:13:04.548Z,13.90
2018-09-13T22:15:31.987Z,13.90
2018-09-13T22:17:59.537Z,13.80
2018-09-13T22:20:26.978Z,13.90
2018-09-13T22:22:54.379Z,13.90
2018-09-13T22:25:21.826Z,13.90
2018-09-13T22:27:49.235Z,13.90
2018-09-13T22:30:16.778Z,13.90
2018-09-13T22:32:44.151Z,13.90
2018-09-13T22:35:11.559Z,13.90
2018-09-13T22:37:39.028Z,13.90
2018-09-13T22:40:06.698Z,13.90
2018-09-13T22:42:34.167Z,13.90
2018-09-13T22:45:02.608Z,13.80
2018-09-13T22:47:30.426Z,13.80
2018-09-13T22:49:57.851Z,13.80
2018-09-13T22:52:25.356Z,13.70
2018-09-13T22:54:52.787Z,13.70
2018-09-13T22:57:20.718Z,13.70
2018-09-13T22:59:48.123Z,13.70
2018-09-13T23:02:15.618Z,13.70
2018-09-13T23:04:43.039Z,13.60
2018-09-13T23:07:11.205Z,13.60
2018-09-13T23:09:38.587Z,13.60
2018-09-13T23:12:06.041Z,13.60
2018-09-13T23:14:36.251Z,13.50
2018-09-13T23:17:03.666Z,13.50
2018-09-13T23:19:31.088Z,13.50
2018-09-13T23:21:58.552Z,13.40
2018-09-13T23:24:26.016Z,13.30
2018-09-13T23:26:53.455Z,13.30
2018-09-13T23:29:21.297Z,13.20
2018-09-13T23:31:48.736Z,13.20
2018-09-13T23:34:16.283Z,13.20
2018-09-13T23:36:43.762Z,13.20
2018-09-13T23:39:11.332Z,13.10
2018-09-13T23:41:39.521Z,13.20
2018-09-13T23:44:06.967Z,13.10
2018-09-13T23:46:34.791Z,13.10
2018-09-13T23:49:02.315Z,13.10
2018-09-13T23:51:29.794Z,13.10
2018-09-13T23:53:57.334Z,13.10
2018-09-13T23:56:26.173Z,13.10
2018-09-13T23:58:53.721Z,13.10
